sensor_id;sensor_type;location;lat;lon;timestamp;P1;durP1;ratioP1;P2;durP2;ratioP2
23346;SDS011;36852;45.466;11.066;2023-06-22T00:01:23;14.03;;;8.00;;
23346;SDS011;36852;45.466;11.066;2023-06-22T00:03:51;15.70;;;8.90;;
23346;SDS011;36852;45.466;11.066;2023-06-22T00:06:20;14.63;;;8.65;;
23346;SDS011;36852;45.466;11.066;2023-06-22T00:08:48;15.38;;;8.10;;
23346;SDS011;36852;45.466;11.066;2023-06-22T00:11:17;17.07;;;8.90;;
23346;SDS011;36852;45.466;11.066;2023-06-22T00:13:45;14.00;;;8.53;;
23346;SDS011;36852;45.466;11.066;2023-06-22T00:16:14;15.98;;;8.45;;
23346;SDS011;36852;45.466;11.066;2023-06-22T00:18:42;14.13;;;7.85;;
23346;SDS011;36852;45.466;11.066;2023-06-22T00:21:12;14.85;;;8.30;;
23346;SDS011;36852;45.466;11.066;2023-06-22T00:23:40;14.15;;;8.13;;
23346;SDS011;36852;45.466;11.066;2023-06-22T00:26:09;16.50;;;8.18;;
23346;SDS011;36852;45.466;11.066;2023-06-22T00:28:37;20.68;;;8.35;;
23346;SDS011;36852;45.466;11.066;2023-06-22T00:31:08;15.30;;;8.63;;
23346;SDS011;36852;45.466;11.066;2023-06-22T00:33:36;14.63;;;8.75;;
23346;SDS011;36852;45.466;11.066;2023-06-22T00:36:05;16.10;;;9.38;;
23346;SDS011;36852;45.466;11.066;2023-06-22T00:38:36;17.98;;;10.13;;
23346;SDS011;36852;45.466;11.066;2023-06-22T00:41:08;18.92;;;11.10;;
23346;SDS011;36852;45.466;11.066;2023-06-22T00:43:35;17.50;;;10.15;;
23346;SDS011;36852;45.466;11.066;2023-06-22T00:46:03;18.10;;;10.90;;
23346;SDS011;36852;45.466;11.066;2023-06-22T00:48:31;15.58;;;9.23;;
23346;SDS011;36852;45.466;11.066;2023-06-22T00:51:02;13.70;;;8.80;;
23346;SDS011;36852;45.466;11.066;2023-06-22T00:53:31;14.70;;;8.50;;
23346;SDS011;36852;45.466;11.066;2023-06-22T00:56:00;17.52;;;9.23;;
23346;SDS011;36852;45.466;11.066;2023-06-22T00:58:30;15.55;;;8.60;;
23346;SDS011;36852;45.466;11.066;2023-06-22T01:00:59;15.72;;;8.08;;
23346;SDS011;36852;45.466;11.066;2023-06-22T01:03:27;15.03;;;8.50;;
23346;SDS011;36852;45.466;11.066;2023-06-22T01:05:58;14.87;;;9.55;;
23346;SDS011;36852;45.466;11.066;2023-06-22T01:08:46;14.35;;;8.88;;
23346;SDS011;36852;45.466;11.066;2023-06-22T01:11:22;16.23;;;9.18;;
23346;SDS011;36852;45.466;11.066;2023-06-22T01:14:04;11.65;;;9.28;;
23346;SDS011;36852;45.466;11.066;2023-06-22T01:22:10;17.60;;;9.43;;
23346;SDS011;36852;45.466;11.066;2023-06-22T01:30:05;12.82;;;9.03;;
23346;SDS011;36852;45.466;11.066;2023-06-22T01:32:36;11.12;;;8.58;;
23346;SDS011;36852;45.466;11.066;2023-06-22T01:35:07;10.85;;;8.75;;
23346;SDS011;36852;45.466;11.066;2023-06-22T01:37:38;15.25;;;9.73;;
23346;SDS011;36852;45.466;11.066;2023-06-22T01:40:07;16.62;;;9.08;;
23346;SDS011;36852;45.466;11.066;2023-06-22T01:42:36;16.90;;;9.55;;
23346;SDS011;36852;45.466;11.066;2023-06-22T01:45:06;16.52;;;9.43;;
23346;SDS011;36852;45.466;11.066;2023-06-22T01:47:37;12.63;;;8.60;;
23346;SDS011;36852;45.466;11.066;2023-06-22T01:50:08;17.92;;;9.63;;
23346;SDS011;36852;45.466;11.066;2023-06-22T01:52:37;15.93;;;9.20;;
23346;SDS011;36852;45.466;11.066;2023-06-22T01:55:05;15.88;;;9.65;;
23346;SDS011;36852;45.466;11.066;2023-06-22T01:57:35;18.25;;;8.73;;
23346;SDS011;36852;45.466;11.066;2023-06-22T02:00:03;17.05;;;8.75;;
23346;SDS011;36852;45.466;11.066;2023-06-22T02:02:49;18.75;;;9.75;;
23346;SDS011;36852;45.466;11.066;2023-06-22T02:05:18;16.42;;;9.18;;
23346;SDS011;36852;45.466;11.066;2023-06-22T02:07:49;16.30;;;8.75;;
23346;SDS011;36852;45.466;11.066;2023-06-22T02:10:37;19.57;;;9.83;;
23346;SDS011;36852;45.466;11.066;2023-06-22T02:13:09;15.65;;;9.28;;
23346;SDS011;36852;45.466;11.066;2023-06-22T02:15:38;16.12;;;9.15;;
23346;SDS011;36852;45.466;11.066;2023-06-22T02:18:06;14.43;;;8.75;;
23346;SDS011;36852;45.466;11.066;2023-06-22T02:20:37;17.90;;;8.88;;
23346;SDS011;36852;45.466;11.066;2023-06-22T02:23:06;16.60;;;8.90;;
23346;SDS011;36852;45.466;11.066;2023-06-22T02:25:35;17.45;;;8.48;;
23346;SDS011;36852;45.466;11.066;2023-06-22T02:28:03;16.52;;;8.28;;
23346;SDS011;36852;45.466;11.066;2023-06-22T02:30:34;10.45;;;9.00;;
23346;SDS011;36852;45.466;11.066;2023-06-22T02:33:02;16.07;;;8.78;;
23346;SDS011;36852;45.466;11.066;2023-06-22T02:35:30;17.98;;;8.85;;
23346;SDS011;36852;45.466;11.066;2023-06-22T02:37:59;11.70;;;8.23;;
23346;SDS011;36852;45.466;11.066;2023-06-22T02:40:28;15.13;;;9.05;;
23346;SDS011;36852;45.466;11.066;2023-06-22T02:43:00;13.55;;;8.83;;
23346;SDS011;36852;45.466;11.066;2023-06-22T02:45:30;15.75;;;8.90;;
23346;SDS011;36852;45.466;11.066;2023-06-22T02:47:58;14.35;;;8.63;;
23346;SDS011;36852;45.466;11.066;2023-06-22T02:50:27;12.23;;;7.95;;
23346;SDS011;36852;45.466;11.066;2023-06-22T02:52:56;13.50;;;8.33;;
23346;SDS011;36852;45.466;11.066;2023-06-22T02:55:26;16.60;;;8.93;;
23346;SDS011;36852;45.466;11.066;2023-06-22T02:57:56;19.55;;;9.55;;
23346;SDS011;36852;45.466;11.066;2023-06-22T03:00:24;11.65;;;7.67;;
23346;SDS011;36852;45.466;11.066;2023-06-22T03:02:58;17.20;;;8.73;;
23346;SDS011;36852;45.466;11.066;2023-06-22T03:05:27;14.25;;;8.33;;
23346;SDS011;36852;45.466;11.066;2023-06-22T03:07:56;14.25;;;9.08;;
23346;SDS011;36852;45.466;11.066;2023-06-22T03:10:25;13.08;;;8.90;;
23346;SDS011;36852;45.466;11.066;2023-06-22T03:12:56;14.25;;;9.43;;
23346;SDS011;36852;45.466;11.066;2023-06-22T03:15:25;14.78;;;8.58;;
23346;SDS011;36852;45.466;11.066;2023-06-22T03:17:54;11.78;;;9.08;;
23346;SDS011;36852;45.466;11.066;2023-06-22T03:20:22;15.45;;;8.83;;
23346;SDS011;36852;45.466;11.066;2023-06-22T03:22:50;13.28;;;8.25;;
23346;SDS011;36852;45.466;11.066;2023-06-22T03:25:18;19.87;;;8.18;;
23346;SDS011;36852;45.466;11.066;2023-06-22T03:27:47;15.28;;;7.65;;
23346;SDS011;36852;45.466;11.066;2023-06-22T03:30:15;16.10;;;8.25;;
23346;SDS011;36852;45.466;11.066;2023-06-22T03:32:44;15.43;;;8.43;;
23346;SDS011;36852;45.466;11.066;2023-06-22T03:35:14;16.50;;;8.88;;
23346;SDS011;36852;45.466;11.066;2023-06-22T03:37:42;15.00;;;8.35;;
23346;SDS011;36852;45.466;11.066;2023-06-22T03:40:11;16.48;;;8.60;;
23346;SDS011;36852;45.466;11.066;2023-06-22T03:42:40;16.25;;;8.43;;
23346;SDS011;36852;45.466;11.066;2023-06-22T03:45:09;14.03;;;8.30;;
23346;SDS011;36852;45.466;11.066;2023-06-22T03:47:40;17.27;;;9.35;;
23346;SDS011;36852;45.466;11.066;2023-06-22T03:50:08;17.87;;;8.30;;
23346;SDS011;36852;45.466;11.066;2023-06-22T03:52:37;18.82;;;9.23;;
23346;SDS011;36852;45.466;11.066;2023-06-22T03:55:08;16.10;;;9.38;;
23346;SDS011;36852;45.466;11.066;2023-06-22T03:57:36;19.85;;;10.15;;
23346;SDS011;36852;45.466;11.066;2023-06-22T04:00:05;16.10;;;8.90;;
23346;SDS011;36852;45.466;11.066;2023-06-22T04:02:40;17.35;;;8.28;;
23346;SDS011;36852;45.466;11.066;2023-06-22T04:05:08;19.35;;;8.85;;
23346;SDS011;36852;45.466;11.066;2023-06-22T04:07:40;16.27;;;9.35;;
23346;SDS011;36852;45.466;11.066;2023-06-22T04:10:08;13.65;;;8.28;;
23346;SDS011;36852;45.466;11.066;2023-06-22T04:12:38;25.62;;;9.58;;
23346;SDS011;36852;45.466;11.066;2023-06-22T04:15:06;13.43;;;8.73;;
23346;SDS011;36852;45.466;11.066;2023-06-22T04:17:35;17.77;;;7.80;;
23346;SDS011;36852;45.466;11.066;2023-06-22T04:20:03;18.27;;;9.58;;
23346;SDS011;36852;45.466;11.066;2023-06-22T04:22:32;16.25;;;8.25;;
23346;SDS011;36852;45.466;11.066;2023-06-22T04:25:01;12.75;;;8.13;;
23346;SDS011;36852;45.466;11.066;2023-06-22T04:27:30;15.28;;;7.87;;
23346;SDS011;36852;45.466;11.066;2023-06-22T04:29:58;8.18;;;7.35;;
23346;SDS011;36852;45.466;11.066;2023-06-22T04:32:30;15.48;;;8.00;;
23346;SDS011;36852;45.466;11.066;2023-06-22T04:34:58;14.47;;;8.05;;
23346;SDS011;36852;45.466;11.066;2023-06-22T04:37:28;18.05;;;8.75;;
23346;SDS011;36852;45.466;11.066;2023-06-22T04:39:57;12.98;;;8.18;;
23346;SDS011;36852;45.466;11.066;2023-06-22T04:42:35;14.47;;;8.50;;
23346;SDS011;36852;45.466;11.066;2023-06-22T04:45:05;13.55;;;8.55;;
23346;SDS011;36852;45.466;11.066;2023-06-22T04:47:33;13.28;;;7.67;;
23346;SDS011;36852;45.466;11.066;2023-06-22T04:50:03;16.20;;;8.65;;
23346;SDS011;36852;45.466;11.066;2023-06-22T04:52:33;15.03;;;7.85;;
23346;SDS011;36852;45.466;11.066;2023-06-22T04:55:00;14.38;;;7.75;;
23346;SDS011;36852;45.466;11.066;2023-06-22T04:57:28;17.85;;;9.10;;
23346;SDS011;36852;45.466;11.066;2023-06-22T05:00:01;17.82;;;9.98;;
23346;SDS011;36852;45.466;11.066;2023-06-22T05:02:31;17.70;;;9.78;;
23346;SDS011;36852;45.466;11.066;2023-06-22T05:05:01;15.55;;;8.30;;
23346;SDS011;36852;45.466;11.066;2023-06-22T05:07:31;12.58;;;8.93;;
23346;SDS011;36852;45.466;11.066;2023-06-22T05:09:59;17.62;;;8.00;;
23346;SDS011;36852;45.466;11.066;2023-06-22T05:12:28;14.47;;;7.62;;
23346;SDS011;36852;45.466;11.066;2023-06-22T05:14:57;14.03;;;8.18;;
23346;SDS011;36852;45.466;11.066;2023-06-22T05:17:25;15.28;;;8.30;;
23346;SDS011;36852;45.466;11.066;2023-06-22T05:19:53;13.13;;;8.08;;
23346;SDS011;36852;45.466;11.066;2023-06-22T05:22:21;19.90;;;8.23;;
23346;SDS011;36852;45.466;11.066;2023-06-22T05:24:50;18.15;;;8.75;;
23346;SDS011;36852;45.466;11.066;2023-06-22T05:27:20;12.98;;;9.80;;
23346;SDS011;36852;45.466;11.066;2023-06-22T05:29:48;15.60;;;10.80;;
23346;SDS011;36852;45.466;11.066;2023-06-22T05:32:17;16.93;;;10.58;;
23346;SDS011;36852;45.466;11.066;2023-06-22T05:34:46;13.13;;;10.32;;
23346;SDS011;36852;45.466;11.066;2023-06-22T05:37:14;15.53;;;10.68;;
23346;SDS011;36852;45.466;11.066;2023-06-22T05:39:42;15.93;;;12.00;;
23346;SDS011;36852;45.466;11.066;2023-06-22T05:42:13;21.42;;;11.85;;
23346;SDS011;36852;45.466;11.066;2023-06-22T05:44:41;23.07;;;13.28;;
23346;SDS011;36852;45.466;11.066;2023-06-22T05:47:09;27.60;;;19.73;;
23346;SDS011;36852;45.466;11.066;2023-06-22T05:49:37;19.02;;;14.83;;
23346;SDS011;36852;45.466;11.066;2023-06-22T05:52:06;34.75;;;16.85;;
23346;SDS011;36852;45.466;11.066;2023-06-22T05:54:35;25.70;;;14.23;;
23346;SDS011;36852;45.466;11.066;2023-06-22T05:57:03;24.47;;;14.23;;
23346;SDS011;36852;45.466;11.066;2023-06-22T05:59:34;25.27;;;12.53;;
23346;SDS011;36852;45.466;11.066;2023-06-22T06:02:03;22.75;;;12.05;;
23346;SDS011;36852;45.466;11.066;2023-06-22T06:04:31;18.62;;;12.88;;
23346;SDS011;36852;45.466;11.066;2023-06-22T06:06:59;23.98;;;13.75;;
23346;SDS011;36852;45.466;11.066;2023-06-22T06:09:28;21.30;;;12.07;;
23346;SDS011;36852;45.466;11.066;2023-06-22T06:11:59;21.20;;;12.85;;
23346;SDS011;36852;45.466;11.066;2023-06-22T06:14:28;22.95;;;12.00;;
23346;SDS011;36852;45.466;11.066;2023-06-22T06:16:59;18.98;;;12.88;;
23346;SDS011;36852;45.466;11.066;2023-06-22T06:19:27;18.65;;;11.90;;
23346;SDS011;36852;45.466;11.066;2023-06-22T06:21:55;15.45;;;12.18;;
23346;SDS011;36852;45.466;11.066;2023-06-22T06:24:23;21.52;;;13.65;;
23346;SDS011;36852;45.466;11.066;2023-06-22T06:26:52;19.15;;;12.75;;
23346;SDS011;36852;45.466;11.066;2023-06-22T06:29:20;32.65;;;20.15;;
23346;SDS011;36852;45.466;11.066;2023-06-22T06:31:48;21.55;;;12.75;;
23346;SDS011;36852;45.466;11.066;2023-06-22T06:34:18;22.95;;;12.58;;
23346;SDS011;36852;45.466;11.066;2023-06-22T06:36:46;25.15;;;12.63;;
23346;SDS011;36852;45.466;11.066;2023-06-22T06:39:14;21.15;;;14.85;;
23346;SDS011;36852;45.466;11.066;2023-06-22T06:41:43;18.80;;;12.10;;
23346;SDS011;36852;45.466;11.066;2023-06-22T06:44:20;19.25;;;12.00;;
23346;SDS011;36852;45.466;11.066;2023-06-22T06:46:48;19.40;;;12.85;;
23346;SDS011;36852;45.466;11.066;2023-06-22T06:49:17;21.25;;;12.55;;
23346;SDS011;36852;45.466;11.066;2023-06-22T06:51:45;20.17;;;11.53;;
23346;SDS011;36852;45.466;11.066;2023-06-22T06:54:13;22.62;;;12.10;;
23346;SDS011;36852;45.466;11.066;2023-06-22T06:56:42;19.20;;;11.80;;
23346;SDS011;36852;45.466;11.066;2023-06-22T06:59:12;19.80;;;11.55;;
23346;SDS011;36852;45.466;11.066;2023-06-22T07:01:41;22.98;;;12.63;;
23346;SDS011;36852;45.466;11.066;2023-06-22T07:04:11;18.02;;;11.43;;
23346;SDS011;36852;45.466;11.066;2023-06-22T07:06:42;19.98;;;11.93;;
23346;SDS011;36852;45.466;11.066;2023-06-22T07:09:10;25.12;;;11.85;;
23346;SDS011;36852;45.466;11.066;2023-06-22T07:11:38;22.95;;;12.03;;
23346;SDS011;36852;45.466;11.066;2023-06-22T07:14:06;33.85;;;21.73;;
23346;SDS011;36852;45.466;11.066;2023-06-22T07:16:34;33.33;;;22.13;;
23346;SDS011;36852;45.466;11.066;2023-06-22T07:19:02;21.95;;;13.43;;
23346;SDS011;36852;45.466;11.066;2023-06-22T07:21:30;17.52;;;12.10;;
23346;SDS011;36852;45.466;11.066;2023-06-22T07:23:58;21.00;;;12.15;;
23346;SDS011;36852;45.466;11.066;2023-06-22T07:26:26;20.30;;;12.03;;
23346;SDS011;36852;45.466;11.066;2023-06-22T07:28:54;21.57;;;12.50;;
23346;SDS011;36852;45.466;11.066;2023-06-22T07:31:23;21.48;;;12.65;;
23346;SDS011;36852;45.466;11.066;2023-06-22T07:33:53;24.07;;;14.33;;
23346;SDS011;36852;45.466;11.066;2023-06-22T07:36:24;25.15;;;12.60;;
23346;SDS011;36852;45.466;11.066;2023-06-22T07:38:52;27.58;;;13.18;;
23346;SDS011;36852;45.466;11.066;2023-06-22T07:41:20;27.00;;;13.98;;
23346;SDS011;36852;45.466;11.066;2023-06-22T07:43:48;22.45;;;13.45;;
23346;SDS011;36852;45.466;11.066;2023-06-22T07:46:16;17.87;;;13.48;;
23346;SDS011;36852;45.466;11.066;2023-06-22T07:48:44;19.90;;;12.53;;
23346;SDS011;36852;45.466;11.066;2023-06-22T07:51:12;22.02;;;12.93;;
23346;SDS011;36852;45.466;11.066;2023-06-22T07:53:41;24.20;;;14.03;;
23346;SDS011;36852;45.466;11.066;2023-06-22T07:56:10;25.77;;;13.03;;
23346;SDS011;36852;45.466;11.066;2023-06-22T07:58:38;27.30;;;13.83;;
23346;SDS011;36852;45.466;11.066;2023-06-22T08:01:06;29.50;;;13.22;;
23346;SDS011;36852;45.466;11.066;2023-06-22T08:03:36;18.23;;;12.13;;
23346;SDS011;36852;45.466;11.066;2023-06-22T08:06:04;20.23;;;12.20;;
23346;SDS011;36852;45.466;11.066;2023-06-22T08:08:33;20.32;;;11.57;;
23346;SDS011;36852;45.466;11.066;2023-06-22T08:11:01;24.00;;;12.10;;
23346;SDS011;36852;45.466;11.066;2023-06-22T08:13:29;24.15;;;11.70;;
23346;SDS011;36852;45.466;11.066;2023-06-22T08:15:57;23.75;;;12.53;;
23346;SDS011;36852;45.466;11.066;2023-06-22T08:18:25;19.00;;;12.33;;
23346;SDS011;36852;45.466;11.066;2023-06-22T08:20:56;15.23;;;11.75;;
23346;SDS011;36852;45.466;11.066;2023-06-22T08:23:24;20.23;;;11.88;;
23346;SDS011;36852;45.466;11.066;2023-06-22T08:25:52;22.20;;;11.45;;
23346;SDS011;36852;45.466;11.066;2023-06-22T08:28:19;20.08;;;11.48;;
23346;SDS011;36852;45.466;11.066;2023-06-22T08:30:47;21.90;;;11.25;;
23346;SDS011;36852;45.466;11.066;2023-06-22T08:33:15;18.73;;;10.63;;
23346;SDS011;36852;45.466;11.066;2023-06-22T08:35:44;21.60;;;10.53;;
23346;SDS011;36852;45.466;11.066;2023-06-22T08:38:16;18.00;;;9.65;;
23346;SDS011;36852;45.466;11.066;2023-06-22T08:40:45;18.35;;;10.08;;
23346;SDS011;36852;45.466;11.066;2023-06-22T08:43:13;15.43;;;9.88;;
23346;SDS011;36852;45.466;11.066;2023-06-22T08:45:42;20.88;;;11.50;;
23346;SDS011;36852;45.466;11.066;2023-06-22T08:48:11;19.92;;;10.25;;
23346;SDS011;36852;45.466;11.066;2023-06-22T08:50:39;17.65;;;10.38;;
23346;SDS011;36852;45.466;11.066;2023-06-22T08:53:10;17.50;;;11.20;;
23346;SDS011;36852;45.466;11.066;2023-06-22T08:55:42;17.60;;;10.70;;
23346;SDS011;36852;45.466;11.066;2023-06-22T08:58:10;15.70;;;10.88;;
23346;SDS011;36852;45.466;11.066;2023-06-22T09:00:38;14.40;;;10.93;;
23346;SDS011;36852;45.466;11.066;2023-06-22T09:03:06;14.38;;;10.68;;
23346;SDS011;36852;45.466;11.066;2023-06-22T09:05:34;14.13;;;9.93;;
23346;SDS011;36852;45.466;11.066;2023-06-22T09:10:54;21.00;;;10.10;;
23346;SDS011;36852;45.466;11.066;2023-06-22T09:13:22;15.40;;;10.48;;
23346;SDS011;36852;45.466;11.066;2023-06-22T09:15:50;20.88;;;11.18;;
23346;SDS011;36852;45.466;11.066;2023-06-22T09:18:18;17.35;;;11.85;;
23346;SDS011;36852;45.466;11.066;2023-06-22T09:20:46;17.75;;;11.08;;
23346;SDS011;36852;45.466;11.066;2023-06-22T09:23:14;15.28;;;10.43;;
23346;SDS011;36852;45.466;11.066;2023-06-22T09:25:42;23.02;;;11.88;;
23346;SDS011;36852;45.466;11.066;2023-06-22T09:28:11;25.08;;;11.28;;
23346;SDS011;36852;45.466;11.066;2023-06-22T09:30:38;22.35;;;11.03;;
23346;SDS011;36852;45.466;11.066;2023-06-22T09:33:06;22.10;;;11.70;;
23346;SDS011;36852;45.466;11.066;2023-06-22T09:35:34;14.38;;;10.85;;
23346;SDS011;36852;45.466;11.066;2023-06-22T09:38:05;16.93;;;11.20;;
23346;SDS011;36852;45.466;11.066;2023-06-22T09:40:33;16.30;;;11.20;;
23346;SDS011;36852;45.466;11.066;2023-06-22T09:43:02;13.35;;;10.65;;
23346;SDS011;36852;45.466;11.066;2023-06-22T09:45:30;19.30;;;10.72;;
23346;SDS011;36852;45.466;11.066;2023-06-22T09:47:58;17.55;;;10.45;;
23346;SDS011;36852;45.466;11.066;2023-06-22T09:50:26;18.42;;;10.93;;
23346;SDS011;36852;45.466;11.066;2023-06-22T09:52:54;18.20;;;9.15;;
23346;SDS011;36852;45.466;11.066;2023-06-22T09:55:27;15.15;;;9.40;;
23346;SDS011;36852;45.466;11.066;2023-06-22T09:57:55;17.05;;;9.70;;
23346;SDS011;36852;45.466;11.066;2023-06-22T10:00:22;14.35;;;9.40;;
23346;SDS011;36852;45.466;11.066;2023-06-22T10:02:51;15.65;;;10.00;;
23346;SDS011;36852;45.466;11.066;2023-06-22T10:05:19;17.15;;;9.85;;
23346;SDS011;36852;45.466;11.066;2023-06-22T10:07:48;15.40;;;9.85;;
23346;SDS011;36852;45.466;11.066;2023-06-22T10:10:15;20.43;;;11.10;;
23346;SDS011;36852;45.466;11.066;2023-06-22T10:12:55;15.28;;;9.60;;
23346;SDS011;36852;45.466;11.066;2023-06-22T10:15:15;16.90;;;10.80;;
23346;SDS011;36852;45.466;11.066;2023-06-22T10:17:44;19.80;;;9.58;;
23346;SDS011;36852;45.466;11.066;2023-06-22T10:20:12;17.45;;;10.40;;
23346;SDS011;36852;45.466;11.066;2023-06-22T10:22:41;19.32;;;8.50;;
23346;SDS011;36852;45.466;11.066;2023-06-22T10:25:11;19.90;;;9.73;;
23346;SDS011;36852;45.466;11.066;2023-06-22T10:27:40;13.78;;;8.65;;
23346;SDS011;36852;45.466;11.066;2023-06-22T10:30:11;14.28;;;8.95;;
23346;SDS011;36852;45.466;11.066;2023-06-22T10:32:41;15.88;;;9.05;;
23346;SDS011;36852;45.466;11.066;2023-06-22T10:35:13;24.37;;;9.85;;
23346;SDS011;36852;45.466;11.066;2023-06-22T10:37:45;17.50;;;9.40;;
23346;SDS011;36852;45.466;11.066;2023-06-22T10:40:14;12.28;;;7.92;;
23346;SDS011;36852;45.466;11.066;2023-06-22T10:42:46;13.90;;;8.28;;
23346;SDS011;36852;45.466;11.066;2023-06-22T10:45:14;15.43;;;9.13;;
23346;SDS011;36852;45.466;11.066;2023-06-22T10:47:41;17.95;;;8.10;;
23346;SDS011;36852;45.466;11.066;2023-06-22T10:50:10;12.88;;;8.73;;
23346;SDS011;36852;45.466;11.066;2023-06-22T10:52:41;15.53;;;8.58;;
23346;SDS011;36852;45.466;11.066;2023-06-22T10:55:09;14.63;;;8.63;;
23346;SDS011;36852;45.466;11.066;2023-06-22T10:57:37;15.03;;;8.20;;
23346;SDS011;36852;45.466;11.066;2023-06-22T11:00:07;14.73;;;7.80;;
23346;SDS011;36852;45.466;11.066;2023-06-22T11:02:36;14.28;;;8.38;;
23346;SDS011;36852;45.466;11.066;2023-06-22T11:05:04;13.88;;;9.55;;
23346;SDS011;36852;45.466;11.066;2023-06-22T11:07:33;17.00;;;9.00;;
23346;SDS011;36852;45.466;11.066;2023-06-22T11:10:04;12.33;;;9.15;;
23346;SDS011;36852;45.466;11.066;2023-06-22T11:12:32;15.88;;;9.55;;
23346;SDS011;36852;45.466;11.066;2023-06-22T11:15:00;14.05;;;8.65;;
23346;SDS011;36852;45.466;11.066;2023-06-22T11:17:28;20.88;;;9.40;;
23346;SDS011;36852;45.466;11.066;2023-06-22T11:19:56;12.95;;;9.83;;
23346;SDS011;36852;45.466;11.066;2023-06-22T11:22:24;17.85;;;11.93;;
23346;SDS011;36852;45.466;11.066;2023-06-22T11:24:52;31.50;;;12.50;;
23346;SDS011;36852;45.466;11.066;2023-06-22T11:27:19;14.75;;;10.85;;
23346;SDS011;36852;45.466;11.066;2023-06-22T11:29:47;20.75;;;13.15;;
23346;SDS011;36852;45.466;11.066;2023-06-22T11:32:15;18.27;;;11.60;;
23346;SDS011;36852;45.466;11.066;2023-06-22T11:34:43;19.15;;;10.70;;
23346;SDS011;36852;45.466;11.066;2023-06-22T11:37:10;21.60;;;13.65;;
23346;SDS011;36852;45.466;11.066;2023-06-22T11:39:39;24.37;;;11.30;;
23346;SDS011;36852;45.466;11.066;2023-06-22T11:42:09;17.37;;;12.03;;
23346;SDS011;36852;45.466;11.066;2023-06-22T11:44:37;20.37;;;11.83;;
23346;SDS011;36852;45.466;11.066;2023-06-22T11:47:05;25.95;;;13.28;;
23346;SDS011;36852;45.466;11.066;2023-06-22T11:49:34;21.02;;;11.73;;
23346;SDS011;36852;45.466;11.066;2023-06-22T11:52:02;25.77;;;13.35;;
23346;SDS011;36852;45.466;11.066;2023-06-22T11:54:34;21.82;;;11.80;;
23346;SDS011;36852;45.466;11.066;2023-06-22T11:57:02;22.58;;;12.95;;
23346;SDS011;36852;45.466;11.066;2023-06-22T11:59:30;27.62;;;12.15;;
23346;SDS011;36852;45.466;11.066;2023-06-22T12:01:58;20.43;;;12.30;;
23346;SDS011;36852;45.466;11.066;2023-06-22T12:04:27;22.17;;;12.00;;
23346;SDS011;36852;45.466;11.066;2023-06-22T12:06:57;20.52;;;12.05;;
23346;SDS011;36852;45.466;11.066;2023-06-22T12:09:26;23.52;;;12.30;;
23346;SDS011;36852;45.466;11.066;2023-06-22T12:11:53;18.80;;;12.07;;
23346;SDS011;36852;45.466;11.066;2023-06-22T12:14:21;18.00;;;11.20;;
23346;SDS011;36852;45.466;11.066;2023-06-22T12:16:49;20.75;;;11.88;;
23346;SDS011;36852;45.466;11.066;2023-06-22T12:19:17;22.00;;;11.68;;
23346;SDS011;36852;45.466;11.066;2023-06-22T12:21:45;17.20;;;10.45;;
23346;SDS011;36852;45.466;11.066;2023-06-22T12:24:13;16.70;;;11.30;;
23346;SDS011;36852;45.466;11.066;2023-06-22T12:26:41;27.65;;;12.65;;
23346;SDS011;36852;45.466;11.066;2023-06-22T12:29:09;22.62;;;12.63;;
23346;SDS011;36852;45.466;11.066;2023-06-22T12:31:37;23.12;;;10.32;;
23346;SDS011;36852;45.466;11.066;2023-06-22T12:34:08;22.55;;;10.32;;
23346;SDS011;36852;45.466;11.066;2023-06-22T12:36:36;18.82;;;9.85;;
23346;SDS011;36852;45.466;11.066;2023-06-22T12:39:04;20.50;;;11.08;;
23346;SDS011;36852;45.466;11.066;2023-06-22T12:41:32;19.05;;;10.65;;
23346;SDS011;36852;45.466;11.066;2023-06-22T12:44:00;17.40;;;9.65;;
23346;SDS011;36852;45.466;11.066;2023-06-22T12:46:28;16.93;;;10.05;;
23346;SDS011;36852;45.466;11.066;2023-06-22T12:48:57;20.92;;;10.78;;
23346;SDS011;36852;45.466;11.066;2023-06-22T12:51:25;14.30;;;9.65;;
23346;SDS011;36852;45.466;11.066;2023-06-22T12:53:53;14.70;;;9.68;;
23346;SDS011;36852;45.466;11.066;2023-06-22T12:56:21;17.07;;;10.15;;
23346;SDS011;36852;45.466;11.066;2023-06-22T12:58:53;15.90;;;10.30;;
23346;SDS011;36852;45.466;11.066;2023-06-22T13:01:21;15.43;;;10.63;;
23346;SDS011;36852;45.466;11.066;2023-06-22T13:03:49;14.78;;;9.73;;
23346;SDS011;36852;45.466;11.066;2023-06-22T13:06:17;13.40;;;9.75;;
23346;SDS011;36852;45.466;11.066;2023-06-22T13:08:45;13.00;;;10.72;;
23346;SDS011;36852;45.466;11.066;2023-06-22T13:11:15;22.02;;;9.15;;
23346;SDS011;36852;45.466;11.066;2023-06-22T13:13:44;20.55;;;10.40;;
23346;SDS011;36852;45.466;11.066;2023-06-22T13:16:13;18.12;;;9.28;;
23346;SDS011;36852;45.466;11.066;2023-06-22T13:18:44;18.07;;;9.75;;
23346;SDS011;36852;45.466;11.066;2023-06-22T13:21:12;17.00;;;9.43;;
23346;SDS011;36852;45.466;11.066;2023-06-22T13:23:41;15.93;;;9.45;;
23346;SDS011;36852;45.466;11.066;2023-06-22T13:26:10;13.95;;;9.63;;
23346;SDS011;36852;45.466;11.066;2023-06-22T13:28:37;19.05;;;9.95;;
23346;SDS011;36852;45.466;11.066;2023-06-22T13:31:07;17.52;;;9.78;;
23346;SDS011;36852;45.466;11.066;2023-06-22T13:33:39;18.25;;;10.55;;
23346;SDS011;36852;45.466;11.066;2023-06-22T13:36:07;16.45;;;10.10;;
23346;SDS011;36852;45.466;11.066;2023-06-22T13:38:35;18.32;;;9.93;;
23346;SDS011;36852;45.466;11.066;2023-06-22T13:41:05;12.73;;;8.98;;
23346;SDS011;36852;45.466;11.066;2023-06-22T13:43:33;17.12;;;9.88;;
23346;SDS011;36852;45.466;11.066;2023-06-22T13:46:02;17.92;;;10.00;;
23346;SDS011;36852;45.466;11.066;2023-06-22T13:48:30;21.77;;;10.45;;
23346;SDS011;36852;45.466;11.066;2023-06-22T13:50:58;14.10;;;10.08;;
23346;SDS011;36852;45.466;11.066;2023-06-22T13:53:29;17.42;;;9.70;;
23346;SDS011;36852;45.466;11.066;2023-06-22T13:55:57;16.52;;;10.25;;
23346;SDS011;36852;45.466;11.066;2023-06-22T13:58:25;12.05;;;9.80;;
23346;SDS011;36852;45.466;11.066;2023-06-22T14:00:53;22.27;;;10.05;;
23346;SDS011;36852;45.466;11.066;2023-06-22T14:03:23;15.05;;;9.50;;
23346;SDS011;36852;45.466;11.066;2023-06-22T14:05:53;14.93;;;9.30;;
23346;SDS011;36852;45.466;11.066;2023-06-22T14:08:28;21.40;;;9.55;;
23346;SDS011;36852;45.466;11.066;2023-06-22T14:10:55;15.55;;;8.38;;
23346;SDS011;36852;45.466;11.066;2023-06-22T14:13:26;15.50;;;9.13;;
23346;SDS011;36852;45.466;11.066;2023-06-22T14:15:56;12.90;;;9.03;;
23346;SDS011;36852;45.466;11.066;2023-06-22T14:18:23;16.62;;;9.28;;
23346;SDS011;36852;45.466;11.066;2023-06-22T14:20:50;14.80;;;8.63;;
23346;SDS011;36852;45.466;11.066;2023-06-22T14:23:19;22.52;;;9.15;;
23346;SDS011;36852;45.466;11.066;2023-06-22T14:25:47;11.90;;;9.20;;
23346;SDS011;36852;45.466;11.066;2023-06-22T14:28:15;18.80;;;9.93;;
23346;SDS011;36852;45.466;11.066;2023-06-22T14:30:44;15.90;;;9.10;;
23346;SDS011;36852;45.466;11.066;2023-06-22T14:33:12;17.48;;;9.85;;
23346;SDS011;36852;45.466;11.066;2023-06-22T14:35:40;11.30;;;9.10;;
23346;SDS011;36852;45.466;11.066;2023-06-22T14:38:08;19.05;;;8.50;;
23346;SDS011;36852;45.466;11.066;2023-06-22T14:40:36;16.95;;;9.25;;